< Typhoon 200606 2006 Season Typhoon 200608 >
Typhoon 200607 (MARIA)
General InformationTrack Information on Google MapsDetailed Wind InformationAccess Analytics MapList of All Images || NewsDisaster Info.WeblogTrackbackTyphoon FrontResourceGoogle EarthGE AnimationAtom FeedGeoJSON
Detalied Best Track (Time Zone = UTC)
Year Month Day Hour Lat. Long. Pressure (hPa) Wind (kt) Class Image Chart
2006 8 3 18 21.2 152.2 1006 0 2 Image Chart
2006 8 4 00 21.9 151.9 1006 0 2 Image Chart
2006 8 4 06 22.7 151.4 1006 0 2 Image Chart
2006 8 4 12 23.7 149.7 1006 0 2 Image Chart
2006 8 4 18 24.2 148.1 1004 0 2 Image Chart
2006 8 5 00 24.7 147.0 1002 0 2 Image Chart
2006 8 5 06 25.6 146.1 1002 0 2 Image Chart
2006 8 5 12 26.0 145.2 1000 0 2 Image Chart
2006 8 5 18 26.4 143.8 998 35 3 Image Chart
2006 8 5 21 26.7 143.3 994 40 3 Image Chart
2006 8 6 00 27.0 142.7 990 45 3 Image Chart
2006 8 6 03 27.3 142.1 985 50 4 Image Chart
2006 8 6 06 27.6 141.6 980 60 4 Image Chart
2006 8 6 09 27.8 141.1 980 65 5 Image Chart
2006 8 6 12 28.2 140.6 980 65 5 Image Chart
2006 8 6 18 28.8 139.7 975 70 5 Image Chart
2006 8 7 00 29.6 138.8 975 70 5 Image Chart
2006 8 7 06 30.6 138.1 975 70 5 Image Chart
2006 8 7 12 31.2 137.4 975 70 5 Image Chart
2006 8 7 15 31.5 137.0 975 70 5 Image Chart
2006 8 7 18 31.9 136.8 975 70 5 Image Chart
2006 8 7 21 32.3 136.6 975 70 5 Image Chart
2006 8 8 00 32.6 136.6 980 65 5 Image Chart
2006 8 8 03 32.9 136.6 980 65 5 Image Chart
2006 8 8 06 33.1 136.7 980 60 4 Image Chart
2006 8 8 09 33.2 136.8 980 60 4 Image Chart
2006 8 8 12 33.6 137.3 985 55 4 Image Chart
2006 8 8 15 33.8 137.7 985 55 4 Image Chart
2006 8 8 18 34.0 138.1 990 50 4 Image Chart
2006 8 8 21 34.1 138.6 990 50 4 Image Chart
2006 8 8 22 34.2 139.1 992 50 4 Image Chart
2006 8 9 00 34.5 139.8 994 50 4 Image Chart
2006 8 9 03 35.2 140.6 996 50 4 Image Chart
2006 8 9 06 35.6 141.2 996 45 3 Image Chart
2006 8 9 09 36.0 141.8 998 45 3 Image Chart
2006 8 9 12 36.4 142.4 998 40 3 Image Chart
2006 8 9 18 36.7 143.0 1000 40 3 Image Chart
2006 8 10 00 36.9 143.9 1000 40 3 Image Chart
2006 8 10 06 36.9 144.4 1000 0 6 Image Chart
2006 8 10 12 36.9 145.8 1000 0 6 Image Chart
2006 8 10 18 37.7 147.0 1000 0 6 Image Chart
2006 8 11 00 38.7 148.3 1000 0 6 Image Chart
2006 8 11 06 39.3 149.2 1000 0 6 Image Chart
2006 8 11 12 39.8 150.0 1000 0 6 Image Chart
2006 8 11 18 40.0 150.0 1000 0 6 Image Chart
2006 8 12 00 40.6 150.5 998 0 6 Image Chart
2006 8 12 06 41.3 150.7 1000 0 6 Image Chart
2006 8 12 12 42.0 151.0 1000 0 6 Image Chart
2006 8 12 18 42.9 151.3 1002 0 6 Image Chart
2006 8 13 00 43.8 151.5 1004 0 6 Image Chart
2006 8 13 06 44.1 151.3 1004 0 6 Image Chart
2006 8 13 12 45.0 150.9 1004 0 6 Image Chart
2006 8 13 18 46.0 150.7 1006 0 6 Image Chart
2006 8 14 00 47.0 150.7 1008 0 6 Image Chart
2006 8 14 06 47.9 150.8 1008 0 6 Image Chart
2006 8 14 12 48.5 150.5 1008 0 6 Image Chart
Japan Meteorological Agency Best Track Data | Correction Date : 2006-10-30
< Typhoon 200606 2006 Season Typhoon 200608 >

Help